sensor_id;sensor_type;location;lat;lon;timestamp;pressure;altitude;pressure_sealevel;temperature;humidity
4598;BME280;62772;48.646;8.906;2022-09-28T00:00:01;94627.13;;;7.37;100.00
4598;BME280;62772;48.646;8.906;2022-09-28T00:05:01;94614.38;;;7.30;100.00
4598;BME280;62772;48.646;8.906;2022-09-28T00:10:05;94610.38;;;7.36;100.00
4598;BME280;62772;48.646;8.906;2022-09-28T00:15:07;94600.44;;;7.45;100.00
4598;BME280;62772;48.646;8.906;2022-09-28T00:20:08;94596.00;;;7.37;100.00
4598;BME280;62772;48.646;8.906;2022-09-28T00:25:12;94589.41;;;7.56;100.00
4598;BME280;62772;48.646;8.906;2022-09-28T00:30:13;94577.31;;;7.58;100.00
4598;BME280;62772;48.646;8.906;2022-09-28T00:35:16;94570.00;;;7.68;100.00
4598;BME280;62772;48.646;8.906;2022-09-28T00:40:20;94546.22;;;7.59;100.00
4598;BME280;62772;48.646;8.906;2022-09-28T00:45:21;94532.19;;;7.46;100.00
4598;BME280;62772;48.646;8.906;2022-09-28T00:50:27;94519.78;;;7.25;100.00
4598;BME280;62772;48.646;8.906;2022-09-28T00:55:35;94514.25;;;7.31;100.00
4598;BME280;62772;48.646;8.906;2022-09-28T01:00:38;94505.91;;;7.57;100.00
4598;BME280;62772;48.646;8.906;2022-09-28T01:05:43;94489.63;;;7.58;100.00
4598;BME280;62772;48.646;8.906;2022-09-28T01:10:48;94483.31;;;7.63;100.00
4598;BME280;62772;48.646;8.906;2022-09-28T01:15:55;94483.66;;;7.61;100.00
4598;BME280;62772;48.646;8.906;2022-09-28T01:21:04;94476.81;;;7.60;100.00
4598;BME280;62772;48.646;8.906;2022-09-28T01:26:32;94458.22;;;7.60;100.00
4598;BME280;62772;48.646;8.906;2022-09-28T01:31:35;94449.13;;;7.61;100.00
4598;BME280;62772;48.646;8.906;2022-09-28T01:36:40;94437.38;;;7.75;100.00
4598;BME280;62772;48.646;8.906;2022-09-28T01:41:48;94430.59;;;7.77;100.00
4598;BME280;62772;48.646;8.906;2022-09-28T01:46:51;94415.22;;;7.71;100.00
4598;BME280;62772;48.646;8.906;2022-09-28T01:51:56;94403.38;;;7.68;100.00
4598;BME280;62772;48.646;8.906;2022-09-28T01:57:06;94404.06;;;7.65;100.00
4598;BME280;62772;48.646;8.906;2022-09-28T02:02:13;94393.31;;;7.74;100.00
4598;BME280;62772;48.646;8.906;2022-09-28T02:07:18;94388.75;;;7.74;100.00
4598;BME280;62772;48.646;8.906;2022-09-28T02:12:26;94379.00;;;7.78;100.00
4598;BME280;62772;48.646;8.906;2022-09-28T02:17:32;94382.63;;;7.86;100.00
4598;BME280;62772;48.646;8.906;2022-09-28T02:22:37;94373.25;;;7.76;100.00
4598;BME280;62772;48.646;8.906;2022-09-28T02:27:48;94372.00;;;7.86;100.00
4598;BME280;62772;48.646;8.906;2022-09-28T02:32:53;94364.97;;;7.94;100.00
4598;BME280;62772;48.646;8.906;2022-09-28T02:37:57;94357.31;;;7.76;100.00
4598;BME280;62772;48.646;8.906;2022-09-28T02:43:09;94354.66;;;7.76;100.00
4598;BME280;62772;48.646;8.906;2022-09-28T02:48:26;94356.91;;;7.90;100.00
4598;BME280;62772;48.646;8.906;2022-09-28T02:53:52;94347.16;;;7.94;100.00
4598;BME280;62772;48.646;8.906;2022-09-28T02:59:06;94343.28;;;7.92;100.00
4598;BME280;62772;48.646;8.906;2022-09-28T03:04:20;94343.94;;;7.89;100.00
4598;BME280;62772;48.646;8.906;2022-09-28T03:09:28;94343.03;;;7.97;100.00
4598;BME280;62772;48.646;8.906;2022-09-28T03:14:34;94342.94;;;7.93;100.00
4598;BME280;62772;48.646;8.906;2022-09-28T03:19:35;94345.94;;;7.92;100.00
4598;BME280;62772;48.646;8.906;2022-09-28T03:24:36;94331.53;;;7.93;100.00
4598;BME280;62772;48.646;8.906;2022-09-28T03:29:39;94344.06;;;7.92;100.00
4598;BME280;62772;48.646;8.906;2022-09-28T03:34:41;94348.34;;;7.97;100.00
4598;BME280;62772;48.646;8.906;2022-09-28T03:39:42;94347.81;;;7.91;100.00
4598;BME280;62772;48.646;8.906;2022-09-28T03:44:45;94331.16;;;7.78;100.00
4598;BME280;62772;48.646;8.906;2022-09-28T03:49:46;94331.84;;;7.75;100.00
4598;BME280;62772;48.646;8.906;2022-09-28T03:54:48;94329.31;;;7.95;100.00
4598;BME280;62772;48.646;8.906;2022-09-28T03:59:51;94321.41;;;7.98;100.00
4598;BME280;62772;48.646;8.906;2022-09-28T04:04:52;94319.44;;;7.79;100.00
4598;BME280;62772;48.646;8.906;2022-09-28T04:09:53;94318.66;;;7.95;100.00
4598;BME280;62772;48.646;8.906;2022-09-28T04:14:57;94318.31;;;7.80;100.00
4598;BME280;62772;48.646;8.906;2022-09-28T04:19:57;94316.00;;;7.79;100.00
4598;BME280;62772;48.646;8.906;2022-09-28T04:25:13;94339.88;;;7.63;100.00
4598;BME280;62772;48.646;8.906;2022-09-28T04:30:17;94337.41;;;7.70;100.00
4598;BME280;62772;48.646;8.906;2022-09-28T04:35:19;94325.78;;;7.91;100.00
4598;BME280;62772;48.646;8.906;2022-09-28T04:40:20;94329.56;;;7.90;100.00
4598;BME280;62772;48.646;8.906;2022-09-28T04:45:25;94344.16;;;7.96;100.00
4598;BME280;62772;48.646;8.906;2022-09-28T04:50:28;94333.91;;;7.82;100.00
4598;BME280;62772;48.646;8.906;2022-09-28T04:56:04;94331.13;;;8.07;100.00
4598;BME280;62772;48.646;8.906;2022-09-28T05:01:11;94330.44;;;8.10;100.00
4598;BME280;62772;48.646;8.906;2022-09-28T05:06:30;94342.13;;;7.49;100.00
4598;BME280;62772;48.646;8.906;2022-09-28T05:11:38;94350.00;;;7.45;100.00
4598;BME280;62772;48.646;8.906;2022-09-28T05:16:48;94344.50;;;7.38;100.00
4598;BME280;62772;48.646;8.906;2022-09-28T05:21:57;94350.38;;;7.31;100.00
4598;BME280;62772;48.646;8.906;2022-09-28T05:27:00;94347.31;;;7.17;100.00
4598;BME280;62772;48.646;8.906;2022-09-28T05:32:03;94354.63;;;7.20;100.00
4598;BME280;62772;48.646;8.906;2022-09-28T05:37:23;94360.34;;;7.22;100.00
4598;BME280;62772;48.646;8.906;2022-09-28T05:42:24;94368.28;;;7.34;100.00
4598;BME280;62772;48.646;8.906;2022-09-28T05:47:27;94373.97;;;7.20;100.00
4598;BME280;62772;48.646;8.906;2022-09-28T05:52:28;94370.88;;;7.18;100.00
4598;BME280;62772;48.646;8.906;2022-09-28T05:57:29;94370.84;;;7.43;100.00
4598;BME280;62772;48.646;8.906;2022-09-28T06:02:33;94367.06;;;7.32;100.00
4598;BME280;62772;48.646;8.906;2022-09-28T06:07:34;94375.69;;;7.41;100.00
4598;BME280;62772;48.646;8.906;2022-09-28T06:12:35;94385.25;;;7.70;100.00
4598;BME280;62772;48.646;8.906;2022-09-28T06:17:44;94371.84;;;7.67;100.00
4598;BME280;62772;48.646;8.906;2022-09-28T06:23:17;94379.91;;;7.42;100.00
4598;BME280;62772;48.646;8.906;2022-09-28T06:28:18;94387.44;;;7.68;100.00
4598;BME280;62772;48.646;8.906;2022-09-28T06:33:22;94389.84;;;7.45;100.00
4598;BME280;62772;48.646;8.906;2022-09-28T06:38:25;94395.66;;;7.63;100.00
4598;BME280;62772;48.646;8.906;2022-09-28T06:43:26;94401.06;;;7.67;100.00
4598;BME280;62772;48.646;8.906;2022-09-28T06:48:48;94416.44;;;7.73;100.00
4598;BME280;62772;48.646;8.906;2022-09-28T06:54:08;94420.50;;;7.83;100.00
4598;BME280;62772;48.646;8.906;2022-09-28T06:59:34;94414.69;;;7.93;100.00
4598;BME280;62772;48.646;8.906;2022-09-28T07:04:39;94421.44;;;7.75;100.00
4598;BME280;62772;48.646;8.906;2022-09-28T07:10:05;94432.63;;;8.25;100.00
4598;BME280;62772;48.646;8.906;2022-09-28T07:15:20;94451.25;;;8.41;100.00
4598;BME280;62772;48.646;8.906;2022-09-28T07:20:24;94460.56;;;8.47;100.00
4598;BME280;62772;48.646;8.906;2022-09-28T07:25:25;94464.91;;;8.39;100.00
4598;BME280;62772;48.646;8.906;2022-09-28T07:30:56;94466.78;;;8.39;100.00
4598;BME280;62772;48.646;8.906;2022-09-28T07:36:18;94489.66;;;7.99;100.00
4598;BME280;62772;48.646;8.906;2022-09-28T07:41:21;94504.38;;;7.56;100.00
4598;BME280;62772;48.646;8.906;2022-09-28T07:46:32;94503.94;;;7.54;100.00
4598;BME280;62772;48.646;8.906;2022-09-28T07:51:41;94501.94;;;7.51;100.00
4598;BME280;62772;48.646;8.906;2022-09-28T07:56:54;94513.22;;;7.48;100.00
4598;BME280;62772;48.646;8.906;2022-09-28T08:02:08;94522.56;;;7.41;100.00
4598;BME280;62772;48.646;8.906;2022-09-28T08:07:13;94530.50;;;7.29;100.00
4598;BME280;62772;48.646;8.906;2022-09-28T08:12:17;94523.97;;;7.39;100.00
4598;BME280;62772;48.646;8.906;2022-09-28T08:17:45;94531.25;;;7.67;100.00
4598;BME280;62772;48.646;8.906;2022-09-28T08:22:48;94529.50;;;7.58;100.00
4598;BME280;62772;48.646;8.906;2022-09-28T08:27:49;94540.63;;;7.89;100.00
4598;BME280;62772;48.646;8.906;2022-09-28T08:32:50;94542.34;;;7.69;100.00
4598;BME280;62772;48.646;8.906;2022-09-28T08:38:13;94547.84;;;7.88;100.00
4598;BME280;62772;48.646;8.906;2022-09-28T08:44:11;94544.03;;;8.02;100.00
4598;BME280;62772;48.646;8.906;2022-09-28T08:49:42;94563.53;;;8.06;100.00
4598;BME280;62772;48.646;8.906;2022-09-28T08:55:10;94567.75;;;8.07;100.00
4598;BME280;62772;48.646;8.906;2022-09-28T09:00:19;94561.91;;;8.29;100.00
4598;BME280;62772;48.646;8.906;2022-09-28T09:05:30;94576.72;;;8.43;100.00
4598;BME280;62772;48.646;8.906;2022-09-28T09:10:49;94575.63;;;8.72;100.00
4598;BME280;62772;48.646;8.906;2022-09-28T09:15:58;94580.41;;;8.66;100.00
4598;BME280;62772;48.646;8.906;2022-09-28T09:21:36;94579.88;;;8.89;100.00
4598;BME280;62772;48.646;8.906;2022-09-28T09:26:42;94598.88;;;8.59;100.00
4598;BME280;62772;48.646;8.906;2022-09-28T09:32:01;94602.84;;;8.65;100.00
4598;BME280;62772;48.646;8.906;2022-09-28T09:37:17;94601.69;;;8.95;100.00
4598;BME280;62772;48.646;8.906;2022-09-28T09:42:52;94612.22;;;9.35;100.00
4598;BME280;62772;48.646;8.906;2022-09-28T09:48:18;94614.22;;;8.78;100.00
4598;BME280;62772;48.646;8.906;2022-09-28T09:53:24;94623.06;;;9.26;100.00
4598;BME280;62772;48.646;8.906;2022-09-28T09:58:33;94627.47;;;9.06;100.00
4598;BME280;62772;48.646;8.906;2022-09-28T10:03:48;94616.75;;;9.19;100.00
4598;BME280;62772;48.646;8.906;2022-09-28T10:09:00;94623.50;;;9.00;100.00
4598;BME280;62772;48.646;8.906;2022-09-28T10:14:08;94611.97;;;9.24;100.00
4598;BME280;62772;48.646;8.906;2022-09-28T10:19:19;94623.66;;;9.36;100.00
4598;BME280;62772;48.646;8.906;2022-09-28T10:24:59;94622.97;;;9.39;100.00
4598;BME280;62772;48.646;8.906;2022-09-28T10:30:13;94621.59;;;9.29;100.00
4598;BME280;62772;48.646;8.906;2022-09-28T10:35:24;94620.31;;;9.55;100.00
4598;BME280;62772;48.646;8.906;2022-09-28T10:40:37;94623.25;;;9.66;100.00
4598;BME280;62772;48.646;8.906;2022-09-28T10:45:42;94620.06;;;9.60;100.00
4598;BME280;62772;48.646;8.906;2022-09-28T10:50:56;94618.06;;;9.57;100.00
4598;BME280;62772;48.646;8.906;2022-09-28T10:56:00;94617.47;;;9.63;100.00
4598;BME280;62772;48.646;8.906;2022-09-28T11:01:07;94622.91;;;9.67;100.00
4598;BME280;62772;48.646;8.906;2022-09-28T11:06:10;94622.78;;;9.79;100.00
4598;BME280;62772;48.646;8.906;2022-09-28T11:11:15;94624.09;;;9.54;98.56
4598;BME280;62772;48.646;8.906;2022-09-28T11:16:27;94613.16;;;9.75;98.07
4598;BME280;62772;48.646;8.906;2022-09-28T11:21:31;94622.13;;;9.67;96.32
4598;BME280;62772;48.646;8.906;2022-09-28T11:26:41;94621.56;;;10.09;100.00
4598;BME280;62772;48.646;8.906;2022-09-28T11:31:51;94622.53;;;9.69;98.20
4598;BME280;62772;48.646;8.906;2022-09-28T11:37:08;94618.41;;;9.55;95.96
4598;BME280;62772;48.646;8.906;2022-09-28T11:42:22;94606.91;;;9.67;98.13
4598;BME280;62772;48.646;8.906;2022-09-28T11:47:44;94614.88;;;9.99;100.00
4598;BME280;62772;48.646;8.906;2022-09-28T11:52:54;94607.84;;;9.59;93.02
4598;BME280;62772;48.646;8.906;2022-09-28T11:58:02;94609.81;;;9.78;95.43
4598;BME280;62772;48.646;8.906;2022-09-28T12:03:13;94609.22;;;9.85;91.15
4598;BME280;62772;48.646;8.906;2022-09-28T12:08:19;94619.94;;;10.04;95.58
4598;BME280;62772;48.646;8.906;2022-09-28T12:13:37;94609.91;;;10.17;93.53
4598;BME280;62772;48.646;8.906;2022-09-28T12:18:47;94614.03;;;9.79;95.36
4598;BME280;62772;48.646;8.906;2022-09-28T12:23:52;94617.19;;;10.01;93.61
4598;BME280;62772;48.646;8.906;2022-09-28T12:28:56;94617.56;;;9.83;93.95
4598;BME280;62772;48.646;8.906;2022-09-28T12:34:01;94616.00;;;9.66;94.91
4598;BME280;62772;48.646;8.906;2022-09-28T12:39:11;94604.81;;;9.60;93.06
4598;BME280;62772;48.646;8.906;2022-09-28T12:44:24;94610.25;;;10.15;90.21
4598;BME280;62772;48.646;8.906;2022-09-28T12:49:39;94609.44;;;9.95;91.43
4598;BME280;62772;48.646;8.906;2022-09-28T13:00:12;94607.47;;;9.76;92.84
4598;BME280;62772;48.646;8.906;2022-09-28T13:05:57;94605.69;;;10.16;92.12
4598;BME280;62772;48.646;8.906;2022-09-28T13:11:11;94607.13;;;9.94;92.50
4598;BME280;62772;48.646;8.906;2022-09-28T13:16:19;94603.47;;;10.02;92.11
4598;BME280;62772;48.646;8.906;2022-09-28T13:21:32;94604.84;;;10.12;90.63
4598;BME280;62772;48.646;8.906;2022-09-28T13:26:39;94603.28;;;10.46;91.41
4598;BME280;62772;48.646;8.906;2022-09-28T13:31:45;94612.09;;;10.66;82.16
4598;BME280;62772;48.646;8.906;2022-09-28T13:37:17;94611.59;;;10.25;84.84
4598;BME280;62772;48.646;8.906;2022-09-28T13:42:30;94618.50;;;10.26;87.27
4598;BME280;62772;48.646;8.906;2022-09-28T13:47:56;94627.31;;;10.11;83.00
4598;BME280;62772;48.646;8.906;2022-09-28T13:53:10;94627.47;;;10.02;79.95
4598;BME280;62772;48.646;8.906;2022-09-28T13:58:21;94623.59;;;10.15;81.29
4598;BME280;62772;48.646;8.906;2022-09-28T14:03:26;94631.94;;;10.14;85.58
4598;BME280;62772;48.646;8.906;2022-09-28T14:08:32;94630.84;;;10.50;86.49
4598;BME280;62772;48.646;8.906;2022-09-28T14:13:59;94627.69;;;10.29;85.46
4598;BME280;62772;48.646;8.906;2022-09-28T14:19:02;94623.25;;;10.33;84.95
4598;BME280;62772;48.646;8.906;2022-09-28T14:24:27;94625.16;;;10.52;85.98
4598;BME280;62772;48.646;8.906;2022-09-28T14:29:33;94632.00;;;10.33;85.37
4598;BME280;62772;48.646;8.906;2022-09-28T14:34:39;94630.78;;;10.66;82.95
4598;BME280;62772;48.646;8.906;2022-09-28T14:39:45;94636.19;;;10.50;81.31
4598;BME280;62772;48.646;8.906;2022-09-28T14:45:34;94631.66;;;10.55;86.49
4598;BME280;62772;48.646;8.906;2022-09-28T14:50:35;94630.53;;;10.36;88.25
4598;BME280;62772;48.646;8.906;2022-09-28T14:55:44;94628.81;;;10.44;83.27
4598;BME280;62772;48.646;8.906;2022-09-28T15:01:01;94637.53;;;10.25;85.27
4598;BME280;62772;48.646;8.906;2022-09-28T15:06:05;94636.31;;;10.58;86.54
4598;BME280;62772;48.646;8.906;2022-09-28T15:11:14;94636.81;;;10.44;83.44
4598;BME280;62772;48.646;8.906;2022-09-28T15:16:16;94631.13;;;10.65;85.43
4598;BME280;62772;48.646;8.906;2022-09-28T15:21:17;94626.50;;;10.62;83.61
4598;BME280;62772;48.646;8.906;2022-09-28T15:26:28;94627.19;;;10.78;80.19
4598;BME280;62772;48.646;8.906;2022-09-28T15:31:34;94639.47;;;10.44;83.21
4598;BME280;62772;48.646;8.906;2022-09-28T15:36:37;94641.22;;;10.36;86.38
4598;BME280;62772;48.646;8.906;2022-09-28T15:41:42;94640.81;;;10.34;86.18
4598;BME280;62772;48.646;8.906;2022-09-28T15:46:45;94643.06;;;10.51;87.33
4598;BME280;62772;48.646;8.906;2022-09-28T15:51:50;94643.78;;;10.48;90.90
4598;BME280;62772;48.646;8.906;2022-09-28T15:56:56;94637.88;;;10.59;88.40
4598;BME280;62772;48.646;8.906;2022-09-28T16:02:09;94650.63;;;10.49;88.38
4598;BME280;62772;48.646;8.906;2022-09-28T16:07:22;94652.03;;;10.27;86.91
4598;BME280;62772;48.646;8.906;2022-09-28T16:12:29;94650.75;;;10.21;92.88
4598;BME280;62772;48.646;8.906;2022-09-28T16:17:33;94651.84;;;10.01;94.45
4598;BME280;62772;48.646;8.906;2022-09-28T16:22:34;94653.03;;;10.03;94.30
4598;BME280;62772;48.646;8.906;2022-09-28T16:27:42;94651.91;;;10.20;95.24
4598;BME280;62772;48.646;8.906;2022-09-28T16:32:48;94653.78;;;10.20;94.92
4598;BME280;62772;48.646;8.906;2022-09-28T16:37:56;94651.63;;;10.41;98.09
4598;BME280;62772;48.646;8.906;2022-09-28T16:43:03;94663.84;;;10.26;100.00
4598;BME280;62772;48.646;8.906;2022-09-28T16:48:05;94668.25;;;10.19;100.00
4598;BME280;62772;48.646;8.906;2022-09-28T16:53:12;94669.53;;;10.25;100.00
4598;BME280;62772;48.646;8.906;2022-09-28T16:58:35;94666.47;;;9.91;100.00
4598;BME280;62772;48.646;8.906;2022-09-28T17:03:39;94676.44;;;9.94;100.00
4598;BME280;62772;48.646;8.906;2022-09-28T17:08:44;94687.38;;;9.89;100.00
4598;BME280;62772;48.646;8.906;2022-09-28T17:13:47;94694.88;;;9.99;100.00
4598;BME280;62772;48.646;8.906;2022-09-28T17:18:48;94702.00;;;9.63;100.00
4598;BME280;62772;48.646;8.906;2022-09-28T17:23:49;94705.09;;;8.93;100.00
4598;BME280;62772;48.646;8.906;2022-09-28T17:28:52;94707.59;;;8.73;100.00
4598;BME280;62772;48.646;8.906;2022-09-28T17:33:53;94704.41;;;8.43;100.00
4598;BME280;62772;48.646;8.906;2022-09-28T17:38:54;94699.66;;;8.61;100.00
4598;BME280;62772;48.646;8.906;2022-09-28T17:43:59;94703.97;;;8.65;100.00
4598;BME280;62772;48.646;8.906;2022-09-28T17:49:03;94721.09;;;8.80;100.00
4598;BME280;62772;48.646;8.906;2022-09-28T17:54:05;94721.63;;;8.86;100.00
4598;BME280;62772;48.646;8.906;2022-09-28T17:59:16;94724.09;;;8.79;100.00
4598;BME280;62772;48.646;8.906;2022-09-28T18:04:17;94728.09;;;8.85;100.00
4598;BME280;62772;48.646;8.906;2022-09-28T18:09:18;94726.72;;;8.50;100.00
4598;BME280;62772;48.646;8.906;2022-09-28T18:14:26;94736.78;;;8.32;100.00
4598;BME280;62772;48.646;8.906;2022-09-28T18:19:27;94743.50;;;8.79;100.00
4598;BME280;62772;48.646;8.906;2022-09-28T18:24:28;94755.28;;;8.78;100.00
4598;BME280;62772;48.646;8.906;2022-09-28T18:29:34;94766.50;;;8.47;100.00
4598;BME280;62772;48.646;8.906;2022-09-28T18:34:35;94763.50;;;8.36;100.00
4598;BME280;62772;48.646;8.906;2022-09-28T18:39:36;94766.72;;;7.59;100.00
4598;BME280;62772;48.646;8.906;2022-09-28T18:44:42;94775.56;;;7.63;100.00
4598;BME280;62772;48.646;8.906;2022-09-28T18:49:43;94778.63;;;7.40;100.00
4598;BME280;62772;48.646;8.906;2022-09-28T18:54:44;94784.06;;;7.23;100.00
4598;BME280;62772;48.646;8.906;2022-09-28T18:59:51;94785.25;;;7.80;100.00
4598;BME280;62772;48.646;8.906;2022-09-28T19:04:52;94787.28;;;7.95;100.00
4598;BME280;62772;48.646;8.906;2022-09-28T19:09:52;94795.59;;;8.06;100.00
4598;BME280;62772;48.646;8.906;2022-09-28T19:14:56;94788.41;;;8.07;100.00
4598;BME280;62772;48.646;8.906;2022-09-28T19:19:59;94797.56;;;7.85;100.00
4598;BME280;62772;48.646;8.906;2022-09-28T19:25:00;94802.78;;;6.84;100.00
4598;BME280;62772;48.646;8.906;2022-09-28T19:30:04;94807.25;;;7.35;100.00
4598;BME280;62772;48.646;8.906;2022-09-28T19:35:05;94811.91;;;7.59;100.00
4598;BME280;62772;48.646;8.906;2022-09-28T19:40:08;94811.59;;;7.73;100.00
4598;BME280;62772;48.646;8.906;2022-09-28T19:45:12;94821.69;;;6.53;100.00
4598;BME280;62772;48.646;8.906;2022-09-28T19:50:13;94814.97;;;6.17;100.00
4598;BME280;62772;48.646;8.906;2022-09-28T19:55:14;94818.38;;;5.70;100.00
4598;BME280;62772;48.646;8.906;2022-09-28T20:00:21;94817.44;;;5.75;100.00
4598;BME280;62772;48.646;8.906;2022-09-28T20:05:22;94817.81;;;6.12;100.00
4598;BME280;62772;48.646;8.906;2022-09-28T20:10:22;94825.84;;;5.59;100.00
4598;BME280;62772;48.646;8.906;2022-09-28T20:15:26;94829.31;;;5.25;100.00
4598;BME280;62772;48.646;8.906;2022-09-28T20:20:27;94840.38;;;5.27;100.00
4598;BME280;62772;48.646;8.906;2022-09-28T20:25:28;94829.59;;;5.76;100.00
4598;BME280;62772;48.646;8.906;2022-09-28T20:30:31;94831.25;;;6.07;100.00
4598;BME280;62772;48.646;8.906;2022-09-28T20:35:33;94832.03;;;5.98;100.00
4598;BME280;62772;48.646;8.906;2022-09-28T20:40:33;94834.56;;;6.33;100.00
4598;BME280;62772;48.646;8.906;2022-09-28T20:45:37;94843.03;;;6.57;100.00
4598;BME280;62772;48.646;8.906;2022-09-28T20:50:38;94846.25;;;6.71;100.00
4598;BME280;62772;48.646;8.906;2022-09-28T20:55:40;94838.63;;;6.31;100.00
4598;BME280;62772;48.646;8.906;2022-09-28T21:00:43;94841.53;;;6.47;100.00
4598;BME280;62772;48.646;8.906;2022-09-28T21:05:45;94832.44;;;6.27;100.00
4598;BME280;62772;48.646;8.906;2022-09-28T21:10:45;94832.19;;;6.02;100.00
4598;BME280;62772;48.646;8.906;2022-09-28T21:15:49;94838.03;;;5.43;100.00
4598;BME280;62772;48.646;8.906;2022-09-28T21:20:50;94827.66;;;6.03;100.00
4598;BME280;62772;48.646;8.906;2022-09-28T21:26:00;94834.41;;;4.86;100.00
4598;BME280;62772;48.646;8.906;2022-09-28T21:31:05;94829.75;;;5.36;100.00
4598;BME280;62772;48.646;8.906;2022-09-28T21:36:07;94823.50;;;5.75;100.00
4598;BME280;62772;48.646;8.906;2022-09-28T21:41:08;94820.97;;;5.79;100.00
4598;BME280;62772;48.646;8.906;2022-09-28T21:46:12;94833.25;;;6.10;100.00
4598;BME280;62772;48.646;8.906;2022-09-28T21:51:13;94823.00;;;5.91;100.00
4598;BME280;62772;48.646;8.906;2022-09-28T21:56:14;94820.19;;;6.05;100.00
4598;BME280;62772;48.646;8.906;2022-09-28T22:01:19;94819.97;;;6.18;100.00
4598;BME280;62772;48.646;8.906;2022-09-28T22:06:21;94819.31;;;5.66;100.00
4598;BME280;62772;48.646;8.906;2022-09-28T22:11:24;94815.22;;;5.77;100.00
4598;BME280;62772;48.646;8.906;2022-09-28T22:16:29;94816.19;;;5.55;100.00
4598;BME280;62772;48.646;8.906;2022-09-28T22:21:31;94819.25;;;5.92;100.00
4598;BME280;62772;48.646;8.906;2022-09-28T22:26:35;94818.38;;;5.44;100.00
4598;BME280;62772;48.646;8.906;2022-09-28T22:31:41;94816.16;;;5.72;100.00
4598;BME280;62772;48.646;8.906;2022-09-28T22:36:42;94820.72;;;5.11;100.00
4598;BME280;62772;48.646;8.906;2022-09-28T22:41:42;94823.22;;;5.51;100.00
4598;BME280;62772;48.646;8.906;2022-09-28T22:46:45;94814.34;;;5.55;100.00
4598;BME280;62772;48.646;8.906;2022-09-28T22:51:46;94815.69;;;5.88;100.00
4598;BME280;62772;48.646;8.906;2022-09-28T22:56:47;94815.72;;;5.70;100.00
4598;BME280;62772;48.646;8.906;2022-09-28T23:01:50;94817.56;;;5.78;100.00
4598;BME280;62772;48.646;8.906;2022-09-28T23:06:51;94821.47;;;5.81;100.00
4598;BME280;62772;48.646;8.906;2022-09-28T23:11:52;94827.91;;;5.01;100.00
4598;BME280;62772;48.646;8.906;2022-09-28T23:16:55;94828.13;;;4.56;100.00
4598;BME280;62772;48.646;8.906;2022-09-28T23:21:55;94823.72;;;5.18;100.00
4598;BME280;62772;48.646;8.906;2022-09-28T23:26:58;94820.28;;;5.35;100.00
4598;BME280;62772;48.646;8.906;2022-09-28T23:32:01;94819.97;;;5.36;100.00
4598;BME280;62772;48.646;8.906;2022-09-28T23:37:02;94813.25;;;5.56;100.00
4598;BME280;62772;48.646;8.906;2022-09-28T23:42:03;94814.34;;;5.29;100.00
4598;BME280;62772;48.646;8.906;2022-09-28T23:47:06;94817.16;;;4.89;100.00
4598;BME280;62772;48.646;8.906;2022-09-28T23:52:07;94814.81;;;5.14;100.00
4598;BME280;62772;48.646;8.906;2022-09-28T23:57:08;94810.78;;;4.99;100.00
